sensor_id;sensor_type;location;lat;lon;timestamp;P1;durP1;ratioP1;P2;durP2;ratioP2
12519;SDS011;6325;49.540;8.364;2023-03-31T00:01:04;1.77;;;1.20;;
12519;SDS011;6325;49.540;8.364;2023-03-31T00:03:31;2.70;;;1.25;;
12519;SDS011;6325;49.540;8.364;2023-03-31T00:06:03;1.98;;;1.25;;
12519;SDS011;6325;49.540;8.364;2023-03-31T00:08:32;1.77;;;1.13;;
12519;SDS011;6325;49.540;8.364;2023-03-31T00:11:00;2.03;;;1.30;;
12519;SDS011;6325;49.540;8.364;2023-03-31T00:13:28;1.88;;;1.20;;
12519;SDS011;6325;49.540;8.364;2023-03-31T00:15:56;2.00;;;1.00;;
12519;SDS011;6325;49.540;8.364;2023-03-31T00:18:24;2.35;;;1.20;;
12519;SDS011;6325;49.540;8.364;2023-03-31T00:20:51;2.22;;;1.20;;
12519;SDS011;6325;49.540;8.364;2023-03-31T00:23:19;1.83;;;1.10;;
12519;SDS011;6325;49.540;8.364;2023-03-31T00:25:53;1.67;;;1.20;;
12519;SDS011;6325;49.540;8.364;2023-03-31T00:28:20;2.58;;;1.30;;
12519;SDS011;6325;49.540;8.364;2023-03-31T00:30:47;2.15;;;1.25;;
12519;SDS011;6325;49.540;8.364;2023-03-31T00:33:15;2.60;;;1.37;;
12519;SDS011;6325;49.540;8.364;2023-03-31T00:35:42;3.00;;;1.20;;
12519;SDS011;6325;49.540;8.364;2023-03-31T00:38:10;2.45;;;1.27;;
12519;SDS011;6325;49.540;8.364;2023-03-31T00:40:42;2.88;;;1.10;;
12519;SDS011;6325;49.540;8.364;2023-03-31T00:43:17;2.13;;;1.23;;
12519;SDS011;6325;49.540;8.364;2023-03-31T00:45:53;2.63;;;1.47;;
12519;SDS011;6325;49.540;8.364;2023-03-31T00:48:20;2.60;;;1.33;;
12519;SDS011;6325;49.540;8.364;2023-03-31T00:50:50;2.13;;;1.40;;
12519;SDS011;6325;49.540;8.364;2023-03-31T00:53:20;1.95;;;1.27;;
12519;SDS011;6325;49.540;8.364;2023-03-31T00:55:52;2.13;;;1.20;;
12519;SDS011;6325;49.540;8.364;2023-03-31T00:58:22;2.10;;;1.08;;
12519;SDS011;6325;49.540;8.364;2023-03-31T01:00:52;2.58;;;1.23;;
12519;SDS011;6325;49.540;8.364;2023-03-31T01:03:20;1.90;;;1.23;;
12519;SDS011;6325;49.540;8.364;2023-03-31T01:05:49;2.58;;;1.38;;
12519;SDS011;6325;49.540;8.364;2023-03-31T01:08:20;2.28;;;1.20;;
12519;SDS011;6325;49.540;8.364;2023-03-31T01:10:50;2.25;;;1.30;;
12519;SDS011;6325;49.540;8.364;2023-03-31T01:13:19;2.35;;;1.20;;
12519;SDS011;6325;49.540;8.364;2023-03-31T01:15:50;3.28;;;1.40;;
12519;SDS011;6325;49.540;8.364;2023-03-31T01:18:17;2.15;;;1.25;;
12519;SDS011;6325;49.540;8.364;2023-03-31T01:20:50;1.88;;;1.20;;
12519;SDS011;6325;49.540;8.364;2023-03-31T01:24:07;2.38;;;1.40;;
12519;SDS011;6325;49.540;8.364;2023-03-31T01:27:07;1.60;;;1.10;;
12519;SDS011;6325;49.540;8.364;2023-03-31T01:30:19;3.25;;;1.20;;
12519;SDS011;6325;49.540;8.364;2023-03-31T01:36:38;3.08;;;1.30;;
12519;SDS011;6325;49.540;8.364;2023-03-31T01:42:23;2.90;;;1.45;;
12519;SDS011;6325;49.540;8.364;2023-03-31T01:44:59;3.78;;;1.65;;
12519;SDS011;6325;49.540;8.364;2023-03-31T01:47:34;3.20;;;1.45;;
12519;SDS011;6325;49.540;8.364;2023-03-31T01:50:05;2.97;;;1.50;;
12519;SDS011;6325;49.540;8.364;2023-03-31T01:52:36;3.22;;;1.40;;
12519;SDS011;6325;49.540;8.364;2023-03-31T01:55:10;2.67;;;1.30;;
12519;SDS011;6325;49.540;8.364;2023-03-31T01:57:42;3.00;;;1.25;;
12519;SDS011;6325;49.540;8.364;2023-03-31T02:00:15;3.90;;;1.67;;
12519;SDS011;6325;49.540;8.364;2023-03-31T02:02:46;3.38;;;1.60;;
12519;SDS011;6325;49.540;8.364;2023-03-31T02:05:17;2.78;;;1.40;;
12519;SDS011;6325;49.540;8.364;2023-03-31T02:07:50;3.28;;;1.40;;
12519;SDS011;6325;49.540;8.364;2023-03-31T02:10:21;3.22;;;1.60;;
12519;SDS011;6325;49.540;8.364;2023-03-31T02:12:50;3.17;;;1.50;;
12519;SDS011;6325;49.540;8.364;2023-03-31T02:15:21;3.13;;;1.40;;
12519;SDS011;6325;49.540;8.364;2023-03-31T02:17:52;3.80;;;1.50;;
12519;SDS011;6325;49.540;8.364;2023-03-31T02:20:23;2.28;;;1.25;;
12519;SDS011;6325;49.540;8.364;2023-03-31T02:22:54;2.58;;;1.30;;
12519;SDS011;6325;49.540;8.364;2023-03-31T02:25:25;2.47;;;1.17;;
12519;SDS011;6325;49.540;8.364;2023-03-31T02:27:58;3.20;;;1.30;;
12519;SDS011;6325;49.540;8.364;2023-03-31T02:30:29;2.72;;;1.30;;
12519;SDS011;6325;49.540;8.364;2023-03-31T02:33:01;3.37;;;1.40;;
12519;SDS011;6325;49.540;8.364;2023-03-31T02:35:29;3.07;;;1.33;;
12519;SDS011;6325;49.540;8.364;2023-03-31T02:37:58;2.63;;;1.50;;
12519;SDS011;6325;49.540;8.364;2023-03-31T02:40:27;4.27;;;1.67;;
12519;SDS011;6325;49.540;8.364;2023-03-31T02:42:54;3.22;;;1.27;;
12519;SDS011;6325;49.540;8.364;2023-03-31T02:45:44;2.10;;;1.27;;
12519;SDS011;6325;49.540;8.364;2023-03-31T02:48:14;2.57;;;1.30;;
12519;SDS011;6325;49.540;8.364;2023-03-31T02:50:57;2.83;;;1.67;;
12519;SDS011;6325;49.540;8.364;2023-03-31T02:53:46;2.33;;;1.40;;
12519;SDS011;6325;49.540;8.364;2023-03-31T02:56:29;2.00;;;1.10;;
12519;SDS011;6325;49.540;8.364;2023-03-31T02:59:14;3.13;;;1.60;;
12519;SDS011;6325;49.540;8.364;2023-03-31T03:01:58;2.00;;;1.30;;
12519;SDS011;6325;49.540;8.364;2023-03-31T03:04:36;1.08;;;0.90;;
12519;SDS011;6325;49.540;8.364;2023-03-31T03:07:15;1.75;;;1.10;;
12519;SDS011;6325;49.540;8.364;2023-03-31T03:09:53;1.83;;;1.00;;
12519;SDS011;6325;49.540;8.364;2023-03-31T03:12:30;1.38;;;1.20;;
12519;SDS011;6325;49.540;8.364;2023-03-31T03:15:04;2.00;;;1.15;;
12519;SDS011;6325;49.540;8.364;2023-03-31T03:17:36;1.73;;;1.10;;
12519;SDS011;6325;49.540;8.364;2023-03-31T03:20:06;2.20;;;1.38;;
12519;SDS011;6325;49.540;8.364;2023-03-31T03:22:35;2.72;;;1.10;;
12519;SDS011;6325;49.540;8.364;2023-03-31T03:25:05;2.38;;;1.27;;
12519;SDS011;6325;49.540;8.364;2023-03-31T03:27:35;2.53;;;1.27;;
12519;SDS011;6325;49.540;8.364;2023-03-31T03:30:03;2.20;;;1.40;;
12519;SDS011;6325;49.540;8.364;2023-03-31T03:32:31;2.60;;;1.20;;
12519;SDS011;6325;49.540;8.364;2023-03-31T03:34:59;1.50;;;1.10;;
12519;SDS011;6325;49.540;8.364;2023-03-31T03:37:28;2.38;;;1.25;;
12519;SDS011;6325;49.540;8.364;2023-03-31T03:39:55;1.70;;;1.10;;
12519;SDS011;6325;49.540;8.364;2023-03-31T03:42:22;1.70;;;1.20;;
12519;SDS011;6325;49.540;8.364;2023-03-31T03:44:51;2.03;;;1.27;;
12519;SDS011;6325;49.540;8.364;2023-03-31T03:47:18;2.65;;;1.52;;
12519;SDS011;6325;49.540;8.364;2023-03-31T03:49:44;2.75;;;1.40;;
12519;SDS011;6325;49.540;8.364;2023-03-31T03:52:13;2.03;;;1.30;;
12519;SDS011;6325;49.540;8.364;2023-03-31T03:54:40;2.72;;;1.30;;
12519;SDS011;6325;49.540;8.364;2023-03-31T03:57:07;2.40;;;1.25;;
12519;SDS011;6325;49.540;8.364;2023-03-31T03:59:34;2.05;;;1.20;;
12519;SDS011;6325;49.540;8.364;2023-03-31T04:02:03;1.95;;;1.20;;
12519;SDS011;6325;49.540;8.364;2023-03-31T04:04:31;1.80;;;1.30;;
12519;SDS011;6325;49.540;8.364;2023-03-31T04:06:58;3.25;;;1.25;;
12519;SDS011;6325;49.540;8.364;2023-03-31T04:09:25;2.15;;;1.27;;
12519;SDS011;6325;49.540;8.364;2023-03-31T04:11:52;2.33;;;1.23;;
12519;SDS011;6325;49.540;8.364;2023-03-31T04:14:19;1.35;;;1.15;;
12519;SDS011;6325;49.540;8.364;2023-03-31T04:16:46;3.28;;;1.40;;
12519;SDS011;6325;49.540;8.364;2023-03-31T04:19:16;1.77;;;1.20;;
12519;SDS011;6325;49.540;8.364;2023-03-31T04:21:43;3.15;;;1.33;;
12519;SDS011;6325;49.540;8.364;2023-03-31T04:24:10;1.40;;;1.10;;
12519;SDS011;6325;49.540;8.364;2023-03-31T04:26:40;1.02;;;0.82;;
12519;SDS011;6325;49.540;8.364;2023-03-31T04:29:07;2.67;;;1.30;;
12519;SDS011;6325;49.540;8.364;2023-03-31T04:31:36;2.60;;;1.30;;
12519;SDS011;6325;49.540;8.364;2023-03-31T04:34:06;2.75;;;1.30;;
12519;SDS011;6325;49.540;8.364;2023-03-31T04:36:39;2.78;;;1.42;;
12519;SDS011;6325;49.540;8.364;2023-03-31T04:39:11;2.22;;;1.15;;
12519;SDS011;6325;49.540;8.364;2023-03-31T04:41:38;3.53;;;1.55;;
12519;SDS011;6325;49.540;8.364;2023-03-31T04:44:05;1.75;;;1.30;;
12519;SDS011;6325;49.540;8.364;2023-03-31T04:46:32;1.80;;;1.27;;
12519;SDS011;6325;49.540;8.364;2023-03-31T04:49:00;2.47;;;1.20;;
12519;SDS011;6325;49.540;8.364;2023-03-31T04:51:27;2.17;;;1.23;;
12519;SDS011;6325;49.540;8.364;2023-03-31T04:53:55;1.80;;;1.37;;
12519;SDS011;6325;49.540;8.364;2023-03-31T04:56:22;1.52;;;1.42;;
12519;SDS011;6325;49.540;8.364;2023-03-31T04:58:49;2.20;;;1.42;;
12519;SDS011;6325;49.540;8.364;2023-03-31T05:01:16;2.45;;;1.40;;
12519;SDS011;6325;49.540;8.364;2023-03-31T05:03:43;2.13;;;1.30;;
12519;SDS011;6325;49.540;8.364;2023-03-31T05:06:11;3.40;;;1.45;;
12519;SDS011;6325;49.540;8.364;2023-03-31T05:08:39;3.75;;;1.70;;
12519;SDS011;6325;49.540;8.364;2023-03-31T05:11:07;3.08;;;1.67;;
12519;SDS011;6325;49.540;8.364;2023-03-31T05:13:35;3.70;;;1.45;;
12519;SDS011;6325;49.540;8.364;2023-03-31T05:16:05;1.85;;;1.42;;
12519;SDS011;6325;49.540;8.364;2023-03-31T05:18:33;2.30;;;1.40;;
12519;SDS011;6325;49.540;8.364;2023-03-31T05:21:07;1.83;;;1.40;;
12519;SDS011;6325;49.540;8.364;2023-03-31T05:23:35;2.03;;;1.55;;
12519;SDS011;6325;49.540;8.364;2023-03-31T05:26:02;1.97;;;1.40;;
12519;SDS011;6325;49.540;8.364;2023-03-31T05:28:31;2.23;;;1.73;;
12519;SDS011;6325;49.540;8.364;2023-03-31T05:31:00;2.63;;;1.63;;
12519;SDS011;6325;49.540;8.364;2023-03-31T05:33:28;2.40;;;1.88;;
12519;SDS011;6325;49.540;8.364;2023-03-31T05:35:55;3.10;;;1.92;;
12519;SDS011;6325;49.540;8.364;2023-03-31T05:38:24;2.38;;;1.98;;
12519;SDS011;6325;49.540;8.364;2023-03-31T05:40:53;2.97;;;2.10;;
12519;SDS011;6325;49.540;8.364;2023-03-31T05:43:20;2.22;;;1.70;;
12519;SDS011;6325;49.540;8.364;2023-03-31T05:45:48;3.60;;;2.13;;
12519;SDS011;6325;49.540;8.364;2023-03-31T05:48:15;3.35;;;2.40;;
12519;SDS011;6325;49.540;8.364;2023-03-31T05:50:42;3.80;;;2.20;;
12519;SDS011;6325;49.540;8.364;2023-03-31T05:53:09;2.50;;;2.03;;
12519;SDS011;6325;49.540;8.364;2023-03-31T05:55:36;4.45;;;2.60;;
12519;SDS011;6325;49.540;8.364;2023-03-31T05:58:03;3.20;;;2.30;;
12519;SDS011;6325;49.540;8.364;2023-03-31T06:00:30;3.28;;;2.25;;
12519;SDS011;6325;49.540;8.364;2023-03-31T06:02:59;3.85;;;2.20;;
12519;SDS011;6325;49.540;8.364;2023-03-31T06:05:26;3.60;;;2.20;;
12519;SDS011;6325;49.540;8.364;2023-03-31T06:07:55;4.00;;;2.05;;
12519;SDS011;6325;49.540;8.364;2023-03-31T06:10:22;3.20;;;2.15;;
12519;SDS011;6325;49.540;8.364;2023-03-31T06:12:48;4.37;;;2.10;;
12519;SDS011;6325;49.540;8.364;2023-03-31T06:15:15;3.10;;;2.00;;
12519;SDS011;6325;49.540;8.364;2023-03-31T06:17:42;2.58;;;2.00;;
12519;SDS011;6325;49.540;8.364;2023-03-31T06:20:11;3.90;;;2.50;;
12519;SDS011;6325;49.540;8.364;2023-03-31T06:22:38;3.33;;;2.30;;
12519;SDS011;6325;49.540;8.364;2023-03-31T06:25:05;3.40;;;2.30;;
12519;SDS011;6325;49.540;8.364;2023-03-31T06:27:32;4.13;;;2.37;;
12519;SDS011;6325;49.540;8.364;2023-03-31T06:29:59;3.28;;;2.38;;
12519;SDS011;6325;49.540;8.364;2023-03-31T06:32:26;3.20;;;2.35;;
12519;SDS011;6325;49.540;8.364;2023-03-31T06:34:53;3.92;;;2.67;;
12519;SDS011;6325;49.540;8.364;2023-03-31T06:37:22;3.67;;;2.23;;
12519;SDS011;6325;49.540;8.364;2023-03-31T06:39:49;4.07;;;2.55;;
12519;SDS011;6325;49.540;8.364;2023-03-31T06:42:15;3.78;;;2.70;;
12519;SDS011;6325;49.540;8.364;2023-03-31T06:44:42;4.73;;;2.90;;
12519;SDS011;6325;49.540;8.364;2023-03-31T06:47:09;6.18;;;2.88;;
12519;SDS011;6325;49.540;8.364;2023-03-31T06:49:36;3.80;;;2.75;;
12519;SDS011;6325;49.540;8.364;2023-03-31T06:52:04;4.07;;;2.60;;
12519;SDS011;6325;49.540;8.364;2023-03-31T06:54:32;3.85;;;2.85;;
12519;SDS011;6325;49.540;8.364;2023-03-31T06:56:59;2.93;;;2.70;;
12519;SDS011;6325;49.540;8.364;2023-03-31T06:59:26;3.00;;;2.55;;
12519;SDS011;6325;49.540;8.364;2023-03-31T07:01:53;4.25;;;2.95;;
12519;SDS011;6325;49.540;8.364;2023-03-31T07:04:20;3.35;;;2.90;;
12519;SDS011;6325;49.540;8.364;2023-03-31T07:06:47;4.82;;;3.10;;
12519;SDS011;6325;49.540;8.364;2023-03-31T07:09:13;4.13;;;3.00;;
12519;SDS011;6325;49.540;8.364;2023-03-31T07:11:41;5.35;;;3.10;;
12519;SDS011;6325;49.540;8.364;2023-03-31T07:14:08;4.70;;;3.15;;
12519;SDS011;6325;49.540;8.364;2023-03-31T07:16:35;5.55;;;3.42;;
12519;SDS011;6325;49.540;8.364;2023-03-31T07:19:02;4.60;;;2.92;;
12519;SDS011;6325;49.540;8.364;2023-03-31T07:21:30;4.53;;;3.05;;
12519;SDS011;6325;49.540;8.364;2023-03-31T07:23:57;4.95;;;3.22;;
12519;SDS011;6325;49.540;8.364;2023-03-31T07:26:24;4.93;;;3.00;;
12519;SDS011;6325;49.540;8.364;2023-03-31T07:28:53;3.22;;;2.92;;
12519;SDS011;6325;49.540;8.364;2023-03-31T07:31:20;5.03;;;3.20;;
12519;SDS011;6325;49.540;8.364;2023-03-31T07:33:47;3.87;;;2.90;;
12519;SDS011;6325;49.540;8.364;2023-03-31T07:36:15;4.05;;;3.03;;
12519;SDS011;6325;49.540;8.364;2023-03-31T07:38:42;3.53;;;2.80;;
12519;SDS011;6325;49.540;8.364;2023-03-31T07:41:13;4.27;;;3.00;;
12519;SDS011;6325;49.540;8.364;2023-03-31T07:43:41;4.68;;;3.10;;
12519;SDS011;6325;49.540;8.364;2023-03-31T07:46:15;3.53;;;2.63;;
12519;SDS011;6325;49.540;8.364;2023-03-31T07:48:42;4.00;;;3.20;;
12519;SDS011;6325;49.540;8.364;2023-03-31T07:51:10;4.65;;;2.70;;
12519;SDS011;6325;49.540;8.364;2023-03-31T07:53:37;4.10;;;2.80;;
12519;SDS011;6325;49.540;8.364;2023-03-31T07:56:04;3.75;;;2.60;;
12519;SDS011;6325;49.540;8.364;2023-03-31T07:58:31;2.95;;;2.60;;
12519;SDS011;6325;49.540;8.364;2023-03-31T08:00:58;4.00;;;2.80;;
12519;SDS011;6325;49.540;8.364;2023-03-31T08:03:27;4.50;;;2.70;;
12519;SDS011;6325;49.540;8.364;2023-03-31T08:05:56;3.13;;;2.60;;
12519;SDS011;6325;49.540;8.364;2023-03-31T08:08:23;2.75;;;2.53;;
12519;SDS011;6325;49.540;8.364;2023-03-31T08:10:50;3.15;;;2.58;;
12519;SDS011;6325;49.540;8.364;2023-03-31T08:13:17;4.90;;;3.00;;
12519;SDS011;6325;49.540;8.364;2023-03-31T08:15:45;4.65;;;2.70;;
12519;SDS011;6325;49.540;8.364;2023-03-31T08:18:11;2.53;;;2.30;;
12519;SDS011;6325;49.540;8.364;2023-03-31T08:20:40;2.38;;;2.10;;
12519;SDS011;6325;49.540;8.364;2023-03-31T08:23:06;3.15;;;2.40;;
12519;SDS011;6325;49.540;8.364;2023-03-31T08:25:36;3.75;;;2.47;;
12519;SDS011;6325;49.540;8.364;2023-03-31T08:28:03;4.05;;;2.45;;
12519;SDS011;6325;49.540;8.364;2023-03-31T08:30:31;3.25;;;2.03;;
12519;SDS011;6325;49.540;8.364;2023-03-31T08:32:58;3.78;;;1.90;;
12519;SDS011;6325;49.540;8.364;2023-03-31T08:35:25;4.03;;;2.90;;
12519;SDS011;6325;49.540;8.364;2023-03-31T08:37:54;2.65;;;1.92;;
12519;SDS011;6325;49.540;8.364;2023-03-31T08:40:21;2.50;;;1.42;;
12519;SDS011;6325;49.540;8.364;2023-03-31T08:42:52;1.75;;;1.60;;
12519;SDS011;6325;49.540;8.364;2023-03-31T08:45:22;2.47;;;2.25;;
12519;SDS011;6325;49.540;8.364;2023-03-31T08:47:52;2.20;;;2.00;;
12519;SDS011;6325;49.540;8.364;2023-03-31T08:50:24;3.60;;;2.20;;
12519;SDS011;6325;49.540;8.364;2023-03-31T08:52:56;3.22;;;2.40;;
12519;SDS011;6325;49.540;8.364;2023-03-31T08:55:29;3.10;;;2.30;;
12519;SDS011;6325;49.540;8.364;2023-03-31T08:58:05;4.05;;;2.90;;
12519;SDS011;6325;49.540;8.364;2023-03-31T09:00:42;3.42;;;2.13;;
12519;SDS011;6325;49.540;8.364;2023-03-31T09:03:17;3.40;;;2.03;;
12519;SDS011;6325;49.540;8.364;2023-03-31T09:05:53;2.15;;;1.92;;
12519;SDS011;6325;49.540;8.364;2023-03-31T09:08:33;4.35;;;2.35;;
12519;SDS011;6325;49.540;8.364;2023-03-31T09:11:07;5.00;;;2.63;;
12519;SDS011;6325;49.540;8.364;2023-03-31T09:13:45;3.42;;;2.60;;
12519;SDS011;6325;49.540;8.364;2023-03-31T09:16:22;5.18;;;2.75;;
12519;SDS011;6325;49.540;8.364;2023-03-31T09:18:52;4.93;;;2.60;;
12519;SDS011;6325;49.540;8.364;2023-03-31T09:21:25;5.78;;;2.88;;
12519;SDS011;6325;49.540;8.364;2023-03-31T09:23:57;8.73;;;4.35;;
12519;SDS011;6325;49.540;8.364;2023-03-31T09:26:31;7.50;;;3.30;;
12519;SDS011;6325;49.540;8.364;2023-03-31T09:29:04;5.47;;;2.55;;
12519;SDS011;6325;49.540;8.364;2023-03-31T09:31:40;5.97;;;2.70;;
12519;SDS011;6325;49.540;8.364;2023-03-31T09:34:12;6.72;;;3.47;;
12519;SDS011;6325;49.540;8.364;2023-03-31T09:36:41;7.65;;;3.40;;
12519;SDS011;6325;49.540;8.364;2023-03-31T09:39:12;6.07;;;3.10;;
12519;SDS011;6325;49.540;8.364;2023-03-31T09:41:39;5.90;;;3.03;;
12519;SDS011;6325;49.540;8.364;2023-03-31T09:44:13;5.53;;;2.45;;
12519;SDS011;6325;49.540;8.364;2023-03-31T09:46:48;6.28;;;3.38;;
12519;SDS011;6325;49.540;8.364;2023-03-31T09:49:17;4.38;;;2.20;;
12519;SDS011;6325;49.540;8.364;2023-03-31T09:51:47;6.35;;;3.13;;
12519;SDS011;6325;49.540;8.364;2023-03-31T09:54:21;2.85;;;1.70;;
12519;SDS011;6325;49.540;8.364;2023-03-31T09:56:53;3.38;;;1.30;;
12519;SDS011;6325;49.540;8.364;2023-03-31T09:59:20;2.40;;;1.40;;
12519;SDS011;6325;49.540;8.364;2023-03-31T10:01:48;2.22;;;1.25;;
12519;SDS011;6325;49.540;8.364;2023-03-31T10:04:18;2.67;;;1.60;;
12519;SDS011;6325;49.540;8.364;2023-03-31T10:06:48;4.03;;;2.10;;
12519;SDS011;6325;49.540;8.364;2023-03-31T10:09:16;4.05;;;2.20;;
12519;SDS011;6325;49.540;8.364;2023-03-31T10:11:56;2.17;;;1.33;;
12519;SDS011;6325;49.540;8.364;2023-03-31T10:14:25;6.80;;;3.25;;
12519;SDS011;6325;49.540;8.364;2023-03-31T10:16:58;2.45;;;1.52;;
12519;SDS011;6325;49.540;8.364;2023-03-31T10:19:32;3.22;;;1.48;;
12519;SDS011;6325;49.540;8.364;2023-03-31T10:22:01;1.45;;;1.25;;
12519;SDS011;6325;49.540;8.364;2023-03-31T10:24:37;2.10;;;1.10;;
12519;SDS011;6325;49.540;8.364;2023-03-31T10:27:14;2.05;;;1.20;;
12519;SDS011;6325;49.540;8.364;2023-03-31T10:29:46;4.47;;;1.55;;
12519;SDS011;6325;49.540;8.364;2023-03-31T10:32:17;2.87;;;1.60;;
12519;SDS011;6325;49.540;8.364;2023-03-31T10:34:48;3.20;;;1.60;;
12519;SDS011;6325;49.540;8.364;2023-03-31T10:37:16;3.65;;;1.67;;
12519;SDS011;6325;49.540;8.364;2023-03-31T10:39:44;4.10;;;2.10;;
12519;SDS011;6325;49.540;8.364;2023-03-31T10:42:19;3.55;;;2.08;;
12519;SDS011;6325;49.540;8.364;2023-03-31T10:44:47;3.50;;;1.88;;
12519;SDS011;6325;49.540;8.364;2023-03-31T10:47:17;3.53;;;1.90;;
12519;SDS011;6325;49.540;8.364;2023-03-31T10:49:47;5.00;;;2.20;;
12519;SDS011;6325;49.540;8.364;2023-03-31T10:52:17;4.35;;;2.10;;
12519;SDS011;6325;49.540;8.364;2023-03-31T10:54:46;4.70;;;1.95;;
12519;SDS011;6325;49.540;8.364;2023-03-31T10:57:14;4.18;;;2.05;;
12519;SDS011;6325;49.540;8.364;2023-03-31T10:59:54;3.50;;;1.90;;
12519;SDS011;6325;49.540;8.364;2023-03-31T11:02:45;3.65;;;1.85;;
12519;SDS011;6325;49.540;8.364;2023-03-31T11:05:37;3.80;;;1.80;;
12519;SDS011;6325;49.540;8.364;2023-03-31T11:08:18;3.05;;;1.52;;
12519;SDS011;6325;49.540;8.364;2023-03-31T11:11:02;2.70;;;1.60;;
12519;SDS011;6325;49.540;8.364;2023-03-31T11:13:38;3.55;;;1.52;;
12519;SDS011;6325;49.540;8.364;2023-03-31T11:16:13;2.77;;;1.60;;
12519;SDS011;6325;49.540;8.364;2023-03-31T11:18:51;2.20;;;1.20;;
12519;SDS011;6325;49.540;8.364;2023-03-31T11:21:29;1.92;;;1.25;;
12519;SDS011;6325;49.540;8.364;2023-03-31T11:24:04;4.95;;;2.42;;
12519;SDS011;6325;49.540;8.364;2023-03-31T11:26:45;2.47;;;1.30;;
12519;SDS011;6325;49.540;8.364;2023-03-31T11:29:24;3.30;;;1.85;;
12519;SDS011;6325;49.540;8.364;2023-03-31T11:32:05;2.88;;;1.90;;
12519;SDS011;6325;49.540;8.364;2023-03-31T11:34:54;1.92;;;1.15;;
12519;SDS011;6325;49.540;8.364;2023-03-31T11:37:34;1.90;;;1.20;;
12519;SDS011;6325;49.540;8.364;2023-03-31T11:43:12;2.03;;;1.30;;
12519;SDS011;6325;49.540;8.364;2023-03-31T11:45:50;2.13;;;1.17;;
12519;SDS011;6325;49.540;8.364;2023-03-31T11:48:22;2.20;;;1.23;;
12519;SDS011;6325;49.540;8.364;2023-03-31T11:50:56;2.80;;;1.30;;
12519;SDS011;6325;49.540;8.364;2023-03-31T11:53:26;2.42;;;1.50;;
12519;SDS011;6325;49.540;8.364;2023-03-31T11:55:57;3.50;;;1.90;;
12519;SDS011;6325;49.540;8.364;2023-03-31T11:58:27;3.63;;;1.55;;
12519;SDS011;6325;49.540;8.364;2023-03-31T12:00:59;3.22;;;1.60;;
12519;SDS011;6325;49.540;8.364;2023-03-31T12:03:34;2.78;;;1.20;;
12519;SDS011;6325;49.540;8.364;2023-03-31T12:06:09;2.08;;;1.20;;
12519;SDS011;6325;49.540;8.364;2023-03-31T12:08:45;1.73;;;1.17;;
12519;SDS011;6325;49.540;8.364;2023-03-31T12:11:18;2.60;;;1.35;;
12519;SDS011;6325;49.540;8.364;2023-03-31T12:13:52;2.88;;;1.25;;
12519;SDS011;6325;49.540;8.364;2023-03-31T12:16:25;1.53;;;1.20;;
12519;SDS011;6325;49.540;8.364;2023-03-31T12:19:04;3.63;;;1.48;;
12519;SDS011;6325;49.540;8.364;2023-03-31T12:21:37;2.00;;;1.17;;
12519;SDS011;6325;49.540;8.364;2023-03-31T12:24:09;1.80;;;1.20;;
12519;SDS011;6325;49.540;8.364;2023-03-31T12:26:39;2.38;;;1.60;;
12519;SDS011;6325;49.540;8.364;2023-03-31T12:29:18;1.80;;;0.93;;
12519;SDS011;6325;49.540;8.364;2023-03-31T12:31:52;2.47;;;1.20;;
12519;SDS011;6325;49.540;8.364;2023-03-31T12:34:23;2.93;;;1.10;;
12519;SDS011;6325;49.540;8.364;2023-03-31T12:36:57;2.17;;;1.10;;
12519;SDS011;6325;49.540;8.364;2023-03-31T12:39:37;1.45;;;0.73;;
12519;SDS011;6325;49.540;8.364;2023-03-31T12:42:28;0.98;;;0.82;;
12519;SDS011;6325;49.540;8.364;2023-03-31T12:45:19;1.58;;;0.90;;
12519;SDS011;6325;49.540;8.364;2023-03-31T12:48:01;1.25;;;0.90;;
12519;SDS011;6325;49.540;8.364;2023-03-31T12:50:41;2.10;;;1.17;;
12519;SDS011;6325;49.540;8.364;2023-03-31T12:53:20;1.10;;;1.00;;
12519;SDS011;6325;49.540;8.364;2023-03-31T12:55:56;1.73;;;0.70;;
12519;SDS011;6325;49.540;8.364;2023-03-31T12:58:39;1.53;;;1.00;;
12519;SDS011;6325;49.540;8.364;2023-03-31T13:01:11;1.98;;;0.90;;
12519;SDS011;6325;49.540;8.364;2023-03-31T13:03:50;0.70;;;0.50;;
12519;SDS011;6325;49.540;8.364;2023-03-31T13:12:12;0.60;;;0.60;;
12519;SDS011;6325;49.540;8.364;2023-03-31T13:14:41;1.20;;;0.65;;
12519;SDS011;6325;49.540;8.364;2023-03-31T13:17:26;1.48;;;0.68;;
12519;SDS011;6325;49.540;8.364;2023-03-31T13:19:55;0.77;;;0.60;;
12519;SDS011;6325;49.540;8.364;2023-03-31T13:22:41;1.67;;;0.80;;
12519;SDS011;6325;49.540;8.364;2023-03-31T13:28:13;1.13;;;0.80;;
12519;SDS011;6325;49.540;8.364;2023-03-31T13:30:52;1.92;;;0.88;;
12519;SDS011;6325;49.540;8.364;2023-03-31T13:33:25;1.70;;;0.80;;
12519;SDS011;6325;49.540;8.364;2023-03-31T13:36:01;1.38;;;0.80;;
12519;SDS011;6325;49.540;8.364;2023-03-31T13:38:48;2.10;;;1.00;;
12519;SDS011;6325;49.540;8.364;2023-03-31T13:41:29;2.35;;;1.00;;
12519;SDS011;6325;49.540;8.364;2023-03-31T13:47:34;2.15;;;1.15;;
12519;SDS011;6325;49.540;8.364;2023-03-31T13:53:22;2.35;;;1.30;;
12519;SDS011;6325;49.540;8.364;2023-03-31T13:56:08;2.70;;;1.33;;
12519;SDS011;6325;49.540;8.364;2023-03-31T13:58:57;2.25;;;1.10;;
12519;SDS011;6325;49.540;8.364;2023-03-31T14:01:47;1.88;;;1.10;;
12519;SDS011;6325;49.540;8.364;2023-03-31T14:04:38;1.70;;;1.10;;
12519;SDS011;6325;49.540;8.364;2023-03-31T14:07:27;1.20;;;1.00;;
12519;SDS011;6325;49.540;8.364;2023-03-31T14:09:57;2.53;;;1.27;;
12519;SDS011;6325;49.540;8.364;2023-03-31T14:12:30;5.88;;;3.45;;
12519;SDS011;6325;49.540;8.364;2023-03-31T14:14:58;1.33;;;1.10;;
12519;SDS011;6325;49.540;8.364;2023-03-31T14:17:26;1.13;;;0.88;;
12519;SDS011;6325;49.540;8.364;2023-03-31T14:19:57;1.25;;;0.52;;
12519;SDS011;6325;49.540;8.364;2023-03-31T14:22:58;0.80;;;0.80;;
12519;SDS011;6325;49.540;8.364;2023-03-31T14:25:36;1.53;;;0.70;;
12519;SDS011;6325;49.540;8.364;2023-03-31T14:28:15;2.15;;;0.90;;
12519;SDS011;6325;49.540;8.364;2023-03-31T14:30:59;1.60;;;0.80;;
12519;SDS011;6325;49.540;8.364;2023-03-31T14:33:37;1.02;;;0.80;;
12519;SDS011;6325;49.540;8.364;2023-03-31T14:36:12;2.13;;;0.90;;
12519;SDS011;6325;49.540;8.364;2023-03-31T14:38:46;1.25;;;0.75;;
12519;SDS011;6325;49.540;8.364;2023-03-31T14:41:18;1.10;;;0.85;;
12519;SDS011;6325;49.540;8.364;2023-03-31T14:43:55;1.70;;;0.80;;
12519;SDS011;6325;49.540;8.364;2023-03-31T14:46:23;0.95;;;0.80;;
12519;SDS011;6325;49.540;8.364;2023-03-31T14:48:50;1.67;;;0.88;;
12519;SDS011;6325;49.540;8.364;2023-03-31T14:51:18;1.10;;;0.90;;
12519;SDS011;6325;49.540;8.364;2023-03-31T14:53:54;1.50;;;0.80;;
12519;SDS011;6325;49.540;8.364;2023-03-31T14:56:23;1.98;;;1.00;;
12519;SDS011;6325;49.540;8.364;2023-03-31T14:58:57;2.10;;;1.38;;
12519;SDS011;6325;49.540;8.364;2023-03-31T15:01:24;2.15;;;1.30;;
12519;SDS011;6325;49.540;8.364;2023-03-31T15:03:58;2.28;;;1.10;;
12519;SDS011;6325;49.540;8.364;2023-03-31T15:06:26;2.30;;;1.15;;
12519;SDS011;6325;49.540;8.364;2023-03-31T15:08:57;3.25;;;1.10;;
12519;SDS011;6325;49.540;8.364;2023-03-31T15:11:28;1.30;;;1.00;;
12519;SDS011;6325;49.540;8.364;2023-03-31T15:13:58;2.25;;;1.30;;
12519;SDS011;6325;49.540;8.364;2023-03-31T15:16:35;2.45;;;1.58;;
12519;SDS011;6325;49.540;8.364;2023-03-31T15:19:09;3.30;;;1.35;;
12519;SDS011;6325;49.540;8.364;2023-03-31T15:21:39;2.42;;;1.40;;
12519;SDS011;6325;49.540;8.364;2023-03-31T15:24:06;2.03;;;1.30;;
12519;SDS011;6325;49.540;8.364;2023-03-31T15:26:36;2.08;;;1.15;;
12519;SDS011;6325;49.540;8.364;2023-03-31T15:29:07;2.72;;;1.17;;
12519;SDS011;6325;49.540;8.364;2023-03-31T15:31:38;1.63;;;1.10;;
12519;SDS011;6325;49.540;8.364;2023-03-31T15:34:18;3.20;;;1.60;;
12519;SDS011;6325;49.540;8.364;2023-03-31T15:36:49;2.47;;;1.15;;
12519;SDS011;6325;49.540;8.364;2023-03-31T15:39:18;3.28;;;1.30;;
12519;SDS011;6325;49.540;8.364;2023-03-31T15:41:45;1.83;;;1.10;;
12519;SDS011;6325;49.540;8.364;2023-03-31T15:44:35;2.10;;;1.17;;
12519;SDS011;6325;49.540;8.364;2023-03-31T15:47:15;2.30;;;1.30;;
12519;SDS011;6325;49.540;8.364;2023-03-31T15:49:49;2.97;;;1.70;;
12519;SDS011;6325;49.540;8.364;2023-03-31T15:52:25;2.00;;;1.20;;
12519;SDS011;6325;49.540;8.364;2023-03-31T15:54:54;1.95;;;1.27;;